createdAt,value
2022-10-23T00:01:45.166Z,100785.63
2022-10-23T00:04:17.460Z,100811.41
2022-10-23T00:06:45.584Z,100822.69
2022-10-23T00:09:17.553Z,100815.69
2022-10-23T00:11:50.247Z,100821.72
2022-10-23T00:14:23.001Z,100832.50
2022-10-23T00:16:51.086Z,100852.88
2022-10-23T00:19:19.184Z,100839.81
2022-10-23T00:21:46.801Z,100841.91
2022-10-23T00:24:14.686Z,100834.56
2022-10-23T00:26:42.419Z,100832.94
2022-10-23T00:29:12.421Z,100831.38
2022-10-23T00:32:05.538Z,100837.72
2022-10-23T00:34:33.540Z,100835.97
2022-10-23T00:37:01.024Z,100833.88
2022-10-23T00:39:28.893Z,100837.75
2022-10-23T00:41:56.901Z,100834.13
2022-10-23T00:44:24.495Z,100840.22
2022-10-23T00:46:51.984Z,100832.84
2022-10-23T00:49:20.518Z,100830.91
2022-10-23T00:51:55.974Z,100835.03
2022-10-23T00:54:27.579Z,100827.00
2022-10-23T00:57:01.978Z,100839.34
2022-10-23T00:59:31.124Z,100825.97
2022-10-23T01:01:59.854Z,100831.72
2022-10-23T01:04:29.380Z,100826.75
2022-10-23T01:07:35.462Z,100834.16
2022-10-23T01:10:20.080Z,100835.47
2022-10-23T01:13:55.346Z,100828.22
2022-10-23T01:16:57.722Z,100823.53
2022-10-23T01:20:01.373Z,100831.97
2022-10-23T01:22:35.659Z,100824.94
2022-10-23T01:25:36.504Z,100832.16
2022-10-23T01:28:16.246Z,100830.59
2022-10-23T01:30:45.338Z,100838.06
2022-10-23T01:33:27.452Z,100838.25
2022-10-23T01:36:06.926Z,100840.16
2022-10-23T01:38:51.489Z,100844.28
2022-10-23T01:41:36.504Z,100833.31
2022-10-23T01:44:28.529Z,100832.84
2022-10-23T01:46:57.830Z,100836.06
2022-10-23T01:49:30.024Z,100848.00
2022-10-23T01:52:03.778Z,100843.56
2022-10-23T01:54:36.434Z,100846.69
2022-10-23T01:57:07.756Z,100849.66
2022-10-23T01:59:41.953Z,100849.31
2022-10-23T02:02:13.683Z,100843.72
2022-10-23T02:05:08.470Z,100857.66
2022-10-23T02:07:37.016Z,100850.72
2022-10-23T02:10:10.169Z,100852.53
2022-10-23T02:13:07.437Z,100849.13
2022-10-23T02:15:43.884Z,100854.69
2022-10-23T02:18:51.233Z,100851.56
2022-10-23T02:21:34.226Z,100841.22
2022-10-23T02:24:09.497Z,100852.63
2022-10-23T02:26:54.072Z,100846.44
2022-10-23T02:29:36.347Z,100846.06
2022-10-23T02:32:03.848Z,100850.34
2022-10-23T02:34:32.542Z,100844.97
2022-10-23T02:37:00.705Z,100840.34
2022-10-23T02:39:29.345Z,100833.13
2022-10-23T02:42:35.671Z,100841.94
2022-10-23T02:46:00.183Z,100838.06
2022-10-23T02:51:49.270Z,100848.19
2022-10-23T02:54:35.437Z,100842.53
2022-10-23T02:57:31.144Z,100842.19
2022-10-23T03:00:05.640Z,100843.72
2022-10-23T03:05:59.180Z,100840.09
2022-10-23T03:08:27.000Z,100845.56
2022-10-23T03:10:54.512Z,100852.63
2022-10-23T03:13:24.338Z,100852.72
2022-10-23T03:15:53.110Z,100850.09
2022-10-23T03:18:20.992Z,100855.22
2022-10-23T03:20:51.036Z,100853.66
2022-10-23T03:23:22.682Z,100865.59
2022-10-23T03:25:50.497Z,100862.00
2022-10-23T03:28:32.248Z,100854.91
2022-10-23T03:31:02.236Z,100866.28
2022-10-23T03:33:31.630Z,100867.06
2022-10-23T03:36:08.024Z,100868.66
2022-10-23T03:38:36.352Z,100879.53
2022-10-23T03:41:05.243Z,100873.31
2022-10-23T03:43:33.218Z,100881.78
2022-10-23T03:46:02.064Z,100886.81
2022-10-23T03:48:30.069Z,100886.03
2022-10-23T03:50:59.448Z,100886.38
2022-10-23T03:53:27.156Z,100897.28
2022-10-23T03:55:54.715Z,100893.88
2022-10-23T03:58:22.534Z,100894.22
2022-10-23T04:00:52.781Z,100901.22
2022-10-23T04:03:20.552Z,100899.63
2022-10-23T04:05:50.070Z,100905.03
2022-10-23T04:08:22.623Z,100911.19
2022-10-23T04:10:55.180Z,100914.00
2022-10-23T04:13:34.658Z,100901.63
2022-10-23T04:16:02.456Z,100897.69
2022-10-23T04:18:30.168Z,100896.28
2022-10-23T04:20:57.798Z,100893.31
2022-10-23T04:23:25.680Z,100890.44
2022-10-23T04:25:58.054Z,100892.13
2022-10-23T04:28:27.616Z,100901.19
2022-10-23T04:30:55.585Z,100902.63
2022-10-23T04:33:25.256Z,100903.06
2022-10-23T04:35:53.282Z,100901.97
2022-10-23T04:38:20.991Z,100907.34
2022-10-23T04:40:50.343Z,100907.34
2022-10-23T04:43:22.748Z,100912.16
2022-10-23T04:45:50.448Z,100911.81
2022-10-23T04:48:18.556Z,100909.13
2022-10-23T04:51:10.691Z,100911.34
2022-10-23T04:53:56.776Z,100914.72
2022-10-23T04:56:44.692Z,100910.69
2022-10-23T04:59:16.812Z,100920.44
2022-10-23T05:01:44.825Z,100910.88
2022-10-23T05:04:14.439Z,100914.53
2022-10-23T05:07:00.507Z,100909.03
2022-10-23T05:09:40.972Z,100919.09
2022-10-23T05:12:25.513Z,100926.19
2022-10-23T05:14:54.508Z,100926.59
2022-10-23T05:17:32.228Z,100927.16
2022-10-23T05:20:03.534Z,100931.50
2022-10-23T05:22:37.075Z,100925.19
2022-10-23T05:25:09.665Z,100910.56
2022-10-23T05:27:37.237Z,100910.06
2022-10-23T05:30:10.901Z,100913.88
2022-10-23T05:32:39.761Z,100911.63
2022-10-23T05:35:13.161Z,100910.06
2022-10-23T05:37:43.946Z,100913.53
2022-10-23T05:40:18.142Z,100920.56
2022-10-23T05:42:46.906Z,100929.22
2022-10-23T05:45:18.440Z,100929.00
2022-10-23T05:48:11.230Z,100931.50
2022-10-23T05:51:10.810Z,100928.56
2022-10-23T05:53:50.095Z,100932.75
2022-10-23T05:56:43.267Z,100939.53
2022-10-23T05:59:22.966Z,100945.31
2022-10-23T06:02:09.691Z,100951.13
2022-10-23T06:04:50.749Z,100946.09
2022-10-23T06:07:36.965Z,100953.84
2022-10-23T06:10:07.640Z,100948.28
2022-10-23T06:12:40.399Z,100952.66
2022-10-23T06:15:11.329Z,100955.88
2022-10-23T06:18:17.555Z,100950.47
2022-10-23T06:21:01.667Z,100958.75
2022-10-23T06:23:33.234Z,100958.16
2022-10-23T06:26:21.126Z,100963.38
2022-10-23T06:29:09.059Z,100968.25
2022-10-23T06:31:37.234Z,100966.53
2022-10-23T06:34:06.244Z,100966.38
2022-10-23T06:36:34.055Z,100968.13
2022-10-23T06:39:21.294Z,100959.75
2022-10-23T06:42:09.014Z,100967.16
2022-10-23T06:44:55.214Z,100977.94
2022-10-23T06:47:41.431Z,100973.78
2022-10-23T06:50:15.757Z,100973.16
2022-10-23T06:52:47.697Z,100969.03
2022-10-23T06:55:19.180Z,100963.38
2022-10-23T06:57:47.429Z,100972.09
2022-10-23T07:00:16.517Z,100970.59
2022-10-23T07:02:51.702Z,100973.47
2022-10-23T07:05:20.690Z,100979.28
2022-10-23T07:07:48.630Z,100977.78
2022-10-23T07:10:23.013Z,100983.19
2022-10-23T07:13:01.048Z,100984.84
2022-10-23T07:15:41.062Z,100990.34
2022-10-23T07:18:14.696Z,100989.78
2022-10-23T07:21:02.504Z,100998.94
2022-10-23T07:23:31.933Z,100992.34
2022-10-23T07:26:15.256Z,100991.63
2022-10-23T07:28:46.366Z,100991.38
2022-10-23T07:31:18.346Z,100992.22
2022-10-23T07:34:04.997Z,100999.06
2022-10-23T07:36:33.167Z,101001.31
2022-10-23T07:39:00.650Z,100993.63
2022-10-23T07:41:29.399Z,101004.19
2022-10-23T07:43:56.822Z,101012.09
2022-10-23T07:46:24.709Z,101011.00
2022-10-23T07:48:53.303Z,101012.41
2022-10-23T07:51:22.297Z,101020.31
2022-10-23T07:53:56.577Z,101014.25
2022-10-23T07:56:43.121Z,101009.25
2022-10-23T07:59:17.104Z,101016.31
2022-10-23T08:01:53.864Z,101013.34
2022-10-23T08:04:27.347Z,101020.03
2022-10-23T08:07:15.474Z,101025.94
2022-10-23T08:09:45.671Z,101021.81
2022-10-23T08:12:13.797Z,101020.00
2022-10-23T08:14:41.674Z,101021.69
2022-10-23T08:17:10.070Z,101026.47
2022-10-23T08:20:13.654Z,101024.66
2022-10-23T08:22:44.621Z,101029.78
2022-10-23T08:25:17.735Z,101026.06
2022-10-23T08:27:46.729Z,101014.56
2022-10-23T08:30:15.776Z,101014.34
2022-10-23T08:32:45.085Z,101025.72
2022-10-23T08:35:14.388Z,101016.13
2022-10-23T08:37:42.550Z,101021.25
2022-10-23T08:40:20.299Z,101022.09
2022-10-23T08:43:11.065Z,101016.38
2022-10-23T08:46:00.135Z,101011.34
2022-10-23T08:51:57.766Z,101009.25
2022-10-23T08:54:46.324Z,101018.69
2022-10-23T08:57:17.598Z,101008.72
2022-10-23T09:00:14.968Z,101025.09
2022-10-23T09:02:45.746Z,101019.34
2022-10-23T09:05:45.989Z,101024.41
2022-10-23T09:09:07.913Z,101023.63
2022-10-23T09:12:08.841Z,101020.50
2022-10-23T09:14:55.331Z,101015.06
2022-10-23T09:17:33.486Z,101021.28
2022-10-23T09:20:13.183Z,101019.75
2022-10-23T09:22:42.507Z,101019.75
2022-10-23T09:25:15.963Z,101021.78
2022-10-23T09:27:56.796Z,101026.19
2022-10-23T09:30:40.717Z,101029.38
2022-10-23T09:33:27.169Z,101021.38
2022-10-23T09:35:59.797Z,101015.66
2022-10-23T09:38:39.303Z,101016.53
2022-10-23T09:41:17.995Z,101020.47
2022-10-23T09:43:46.952Z,101020.13
2022-10-23T09:46:20.316Z,101019.06
2022-10-23T09:49:00.885Z,101014.50
2022-10-23T09:51:31.269Z,101010.69
2022-10-23T09:54:00.692Z,101008.03
2022-10-23T09:56:33.404Z,101001.13
2022-10-23T09:59:13.454Z,101000.81
2022-10-23T10:02:27.323Z,101001.59
2022-10-23T10:05:31.405Z,100995.00
2022-10-23T10:08:49.286Z,100997.81
2022-10-23T10:11:44.347Z,100994.75
2022-10-23T10:14:56.950Z,100993.31
2022-10-23T10:18:02.336Z,100986.78
2022-10-23T10:20:36.058Z,100984.09
2022-10-23T10:23:29.077Z,100979.47
2022-10-23T10:26:42.655Z,100974.84
2022-10-23T10:29:41.762Z,100973.31
2022-10-23T10:32:45.334Z,100966.34
2022-10-23T10:35:38.179Z,100971.44
2022-10-23T10:38:12.859Z,100962.13
2022-10-23T10:41:12.560Z,100957.88
2022-10-23T10:44:13.493Z,100956.31
2022-10-23T10:47:28.520Z,100947.00
2022-10-23T10:50:12.952Z,100947.00
2022-10-23T10:53:23.434Z,100950.50
2022-10-23T10:55:54.441Z,100949.34
2022-10-23T10:58:40.612Z,100951.69
2022-10-23T11:01:41.159Z,100946.25
2022-10-23T11:04:48.969Z,100948.59
2022-10-23T11:07:24.042Z,100939.28
2022-10-23T11:09:52.617Z,100940.09
2022-10-23T11:12:29.641Z,100945.16
2022-10-23T11:14:57.901Z,100931.91
2022-10-23T11:17:39.623Z,100931.53
2022-10-23T11:20:35.244Z,100923.00
2022-10-23T11:23:28.084Z,100920.63
2022-10-23T11:26:22.307Z,100914.38
2022-10-23T11:29:13.758Z,100906.16
2022-10-23T11:31:56.904Z,100908.06
2022-10-23T11:35:15.601Z,100890.53
2022-10-23T11:37:43.634Z,100883.91
2022-10-23T11:40:13.285Z,100878.44
2022-10-23T11:42:41.416Z,100880.00
2022-10-23T11:45:30.424Z,100877.66
2022-10-23T11:48:25.329Z,100871.81
2022-10-23T11:50:59.096Z,100869.06
2022-10-23T11:53:32.028Z,100864.34
2022-10-23T11:56:13.580Z,100866.69
2022-10-23T11:58:49.244Z,100874.44
2022-10-23T12:01:44.268Z,100876.38
2022-10-23T12:04:14.927Z,100863.47
2022-10-23T12:06:53.785Z,100862.66
2022-10-23T12:09:37.408Z,100866.50
2022-10-23T12:12:07.547Z,100856.72
2022-10-23T12:14:49.415Z,100854.66
2022-10-23T12:17:22.899Z,100855.38
2022-10-23T12:20:02.655Z,100845.97
2022-10-23T12:22:51.940Z,100849.78
2022-10-23T12:25:37.413Z,100837.13
2022-10-23T12:28:59.405Z,100846.31
2022-10-23T12:31:58.977Z,100841.44
2022-10-23T12:34:26.369Z,100835.88
2022-10-23T12:37:12.890Z,100840.97
2022-10-23T12:39:40.876Z,100837.53
2022-10-23T12:42:21.432Z,100838.41
2022-10-23T12:45:20.077Z,100830.78
2022-10-23T12:47:48.887Z,100826.16
2022-10-23T12:50:34.840Z,100825.19
2022-10-23T12:53:07.742Z,100817.09
2022-10-23T12:56:03.916Z,100820.34
2022-10-23T12:58:35.003Z,100814.97
2022-10-23T13:01:07.458Z,100819.03
2022-10-23T13:03:36.069Z,100817.13
2022-10-23T13:06:05.889Z,100815.19
2022-10-23T13:08:47.673Z,100814.81
2022-10-23T13:11:32.109Z,100803.94
2022-10-23T13:14:13.079Z,100803.16
2022-10-23T13:16:40.671Z,100812.03
2022-10-23T13:19:24.620Z,100813.00
2022-10-23T13:21:52.241Z,100802.25
2022-10-23T13:24:22.203Z,100803.44
2022-10-23T13:26:49.745Z,100795.66
2022-10-23T13:29:31.637Z,100793.47
2022-10-23T13:32:23.051Z,100801.41
2022-10-23T13:35:04.123Z,100797.50
2022-10-23T13:40:27.787Z,100800.09
2022-10-23T13:42:57.328Z,100796.75
2022-10-23T13:45:27.325Z,100786.16
2022-10-23T13:47:55.515Z,100785.34
2022-10-23T13:50:23.262Z,100782.44
2022-10-23T13:52:50.762Z,100778.03
2022-10-23T13:55:25.700Z,100777.47
2022-10-23T13:57:53.807Z,100780.63
2022-10-23T14:00:22.062Z,100774.81
2022-10-23T14:02:49.660Z,100780.00
2022-10-23T14:05:17.441Z,100773.81
2022-10-23T14:07:45.320Z,100760.09
2022-10-23T14:10:13.417Z,100754.53
2022-10-23T14:12:44.777Z,100760.94
2022-10-23T14:15:13.177Z,100752.22
2022-10-23T14:17:41.272Z,100750.06
2022-10-23T14:20:10.057Z,100747.53
2022-10-23T14:22:37.773Z,100754.22
2022-10-23T14:25:06.308Z,100753.91
2022-10-23T14:27:34.021Z,100756.31
2022-10-23T14:30:02.638Z,100747.69
2022-10-23T14:32:31.357Z,100751.31
2022-10-23T14:34:59.405Z,100754.84
2022-10-23T14:37:26.938Z,100740.66
2022-10-23T14:39:54.651Z,100748.34
2022-10-23T14:42:22.749Z,100741.53
2022-10-23T14:44:50.567Z,100741.00
2022-10-23T14:47:21.489Z,100735.97
2022-10-23T14:49:52.442Z,100743.38
2022-10-23T14:52:20.091Z,100726.53
2022-10-23T14:54:47.840Z,100726.09
2022-10-23T14:57:17.938Z,100735.41
2022-10-23T14:59:46.286Z,100732.88
2022-10-23T15:02:14.298Z,100737.94
2022-10-23T15:04:42.465Z,100739.81
2022-10-23T15:07:10.044Z,100728.28
2022-10-23T15:09:39.659Z,100734.66
2022-10-23T15:12:07.886Z,100739.00
2022-10-23T15:14:35.691Z,100737.78
2022-10-23T15:17:03.820Z,100734.88
2022-10-23T15:19:31.663Z,100733.75
2022-10-23T15:21:59.186Z,100729.16
2022-10-23T15:24:27.137Z,100722.00
2022-10-23T15:26:54.614Z,100718.34
2022-10-23T15:29:23.213Z,100721.31
2022-10-23T15:31:59.149Z,100722.59
2022-10-23T15:34:29.499Z,100727.41
2022-10-23T15:36:57.810Z,100725.97
2022-10-23T15:39:33.664Z,100721.34
2022-10-23T15:42:04.251Z,100714.38
2022-10-23T15:44:34.222Z,100721.41
2022-10-23T15:47:01.854Z,100712.88
2022-10-23T15:49:30.072Z,100720.66
2022-10-23T15:51:58.829Z,100711.69
2022-10-23T15:54:29.296Z,100700.41
2022-10-23T15:57:01.643Z,100707.38
2022-10-23T15:59:31.067Z,100705.81
2022-10-23T16:01:59.402Z,100709.28
2022-10-23T16:04:28.674Z,100710.81
2022-10-23T16:06:56.329Z,100720.50
2022-10-23T16:09:24.260Z,100712.34
2022-10-23T16:11:51.754Z,100709.59
2022-10-23T16:14:19.644Z,100712.66
2022-10-23T16:16:47.162Z,100711.84
2022-10-23T16:19:14.991Z,100715.72
2022-10-23T16:21:42.679Z,100715.72
2022-10-23T16:24:11.660Z,100716.13
2022-10-23T16:26:39.795Z,100718.09
2022-10-23T16:29:09.555Z,100708.75
2022-10-23T16:31:37.716Z,100708.75
2022-10-23T16:34:06.957Z,100708.75
2022-10-23T16:36:35.127Z,100707.59
2022-10-23T16:39:21.410Z,100710.31
2022-10-23T16:42:07.658Z,100701.41
2022-10-23T16:44:54.270Z,100709.59
2022-10-23T16:47:21.880Z,100715.03
2022-10-23T16:49:49.601Z,100710.38
2022-10-23T16:52:17.725Z,100709.97
2022-10-23T16:54:45.606Z,100718.13
2022-10-23T16:57:13.286Z,100715.81
2022-10-23T16:59:43.897Z,100716.59
2022-10-23T17:02:14.887Z,100716.63
2022-10-23T17:04:42.840Z,100724.41
2022-10-23T17:07:13.555Z,100720.91
2022-10-23T17:09:43.792Z,100720.13
2022-10-23T17:12:11.267Z,100725.56
2022-10-23T17:14:40.578Z,100721.66
2022-10-23T17:17:09.836Z,100713.50
2022-10-23T17:19:45.452Z,100723.19
2022-10-23T17:22:16.625Z,100723.97
2022-10-23T17:24:47.381Z,100713.84
2022-10-23T17:27:18.692Z,100714.59
2022-10-23T17:29:46.382Z,100727.38
2022-10-23T17:32:13.915Z,100711.84
2022-10-23T17:34:41.829Z,100707.16
2022-10-23T17:37:10.254Z,100714.16
2022-10-23T17:39:37.943Z,100711.03
2022-10-23T17:42:05.540Z,100708.72
2022-10-23T17:44:33.348Z,100710.63
2022-10-23T17:47:00.816Z,100718.75
2022-10-23T17:49:28.761Z,100714.13
2022-10-23T17:51:58.209Z,100710.97
2022-10-23T17:54:27.553Z,100710.97
2022-10-23T17:56:56.168Z,100704.00
2022-10-23T17:59:24.400Z,100696.22
2022-10-23T18:01:52.134Z,100700.91
2022-10-23T18:04:21.214Z,100699.34
2022-10-23T18:06:52.888Z,100694.66
2022-10-23T18:09:23.163Z,100708.63
2022-10-23T18:11:51.739Z,100700.84
2022-10-23T18:14:21.726Z,100699.31
2022-10-23T18:16:50.683Z,100694.63
2022-10-23T18:19:21.324Z,100696.16
2022-10-23T18:21:49.390Z,100689.94
2022-10-23T18:24:17.982Z,100686.81
2022-10-23T18:26:47.913Z,100696.09
2022-10-23T18:29:17.553Z,100698.41
2022-10-23T18:31:48.121Z,100698.41
2022-10-23T18:34:23.746Z,100699.16
2022-10-23T18:36:54.455Z,100699.53
2022-10-23T18:39:25.368Z,100696.06
2022-10-23T18:41:56.777Z,100705.34
2022-10-23T18:44:29.008Z,100702.25
2022-10-23T18:46:59.479Z,100702.25
2022-10-23T18:49:28.164Z,100701.50
2022-10-23T18:51:56.024Z,100692.19
2022-10-23T18:54:26.596Z,100696.84
2022-10-23T18:56:54.714Z,100696.09
2022-10-23T18:59:23.624Z,100686.41
2022-10-23T19:01:51.487Z,100686.00
2022-10-23T19:04:19.805Z,100686.81
2022-10-23T19:06:49.881Z,100684.47
2022-10-23T19:09:18.814Z,100685.25
2022-10-23T19:11:46.910Z,100684.09
2022-10-23T19:14:14.872Z,100681.38
2022-10-23T19:17:04.151Z,100683.69
2022-10-23T19:20:09.784Z,100682.13
2022-10-23T19:22:41.147Z,100673.59
2022-10-23T19:25:15.357Z,100673.59
2022-10-23T19:27:44.876Z,100677.44
2022-10-23T19:30:19.330Z,100670.47
2022-10-23T19:32:51.049Z,100666.19
2022-10-23T19:35:21.197Z,100669.28
2022-10-23T19:37:48.960Z,100675.88
2022-10-23T19:40:17.043Z,100663.84
2022-10-23T19:42:44.853Z,100665.81
2022-10-23T19:45:15.090Z,100656.09
2022-10-23T19:47:43.066Z,100660.38
2022-10-23T19:50:12.384Z,100647.19
2022-10-23T19:52:40.317Z,100650.28
2022-10-23T19:55:09.047Z,100647.94
2022-10-23T19:57:37.189Z,100652.97
2022-10-23T20:00:07.551Z,100654.13
2022-10-23T20:02:38.007Z,100657.22
2022-10-23T20:05:07.498Z,100663.03
2022-10-23T20:07:37.206Z,100655.66
2022-10-23T20:10:08.339Z,100652.16
2022-10-23T20:12:35.985Z,100658.34
2022-10-23T20:15:04.011Z,100661.06
2022-10-23T20:17:31.642Z,100663.38
2022-10-23T20:19:59.381Z,100659.88
2022-10-23T20:22:27.031Z,100667.25
2022-10-23T20:25:27.708Z,100663.75
2022-10-23T20:28:05.302Z,100672.69
2022-10-23T20:30:42.584Z,100659.50
2022-10-23T20:33:13.489Z,100664.56
2022-10-23T20:35:42.325Z,100661.47
2022-10-23T20:38:10.436Z,100653.34
2022-10-23T20:40:38.607Z,100648.69
2022-10-23T20:43:06.066Z,100643.66
2022-10-23T20:45:34.579Z,100639.78
2022-10-23T20:48:02.116Z,100641.34
2022-10-23T20:50:29.922Z,100642.50
2022-10-23T20:52:57.457Z,100646.34
2022-10-23T20:55:25.259Z,100646.34
2022-10-23T20:57:53.174Z,100645.19
2022-10-23T21:00:21.372Z,100646.34
2022-10-23T21:02:51.448Z,100642.09
2022-10-23T21:05:20.179Z,100642.09
2022-10-23T21:07:47.693Z,100647.53
2022-10-23T21:10:15.513Z,100647.16
2022-10-23T21:12:46.800Z,100645.59
2022-10-23T21:15:17.892Z,100649.88
2022-10-23T21:17:55.185Z,100646.41
2022-10-23T21:20:30.337Z,100644.09
2022-10-23T21:23:00.486Z,100638.66
2022-10-23T21:25:28.303Z,100634.75
2022-10-23T21:27:56.371Z,100633.22
2022-10-23T21:30:24.383Z,100629.69
2022-10-23T21:32:51.842Z,100633.59
2022-10-23T21:35:20.581Z,100633.59
2022-10-23T21:37:48.179Z,100636.31
2022-10-23T21:40:16.047Z,100627.78
2022-10-23T21:42:43.706Z,100630.13
2022-10-23T21:45:11.554Z,100622.38
2022-10-23T21:47:39.275Z,100632.47
2022-10-23T21:50:07.720Z,100628.56
2022-10-23T21:52:35.404Z,100626.25
2022-10-23T21:55:04.170Z,100624.72
2022-10-23T21:57:34.235Z,100628.22
2022-10-23T22:00:02.462Z,100626.31
2022-10-23T22:02:40.307Z,100625.13
2022-10-23T22:05:08.385Z,100629.41
2022-10-23T22:07:36.097Z,100625.13
2022-10-23T22:10:04.385Z,100625.53
2022-10-23T22:12:32.008Z,100631.34
2022-10-23T22:14:59.776Z,100630.19
2022-10-23T22:17:27.354Z,100641.44
2022-10-23T22:19:55.261Z,100638.31
2022-10-23T22:22:23.123Z,100641.78
2022-10-23T22:24:50.995Z,100634.81
2022-10-23T22:27:18.489Z,100627.81
2022-10-23T22:29:46.317Z,100636.34
2022-10-23T22:32:14.172Z,100637.47
2022-10-23T22:34:52.214Z,100637.84
2022-10-23T22:37:21.020Z,100646.72
2022-10-23T22:39:53.032Z,100647.16
2022-10-23T22:42:20.870Z,100651.78
2022-10-23T22:44:48.640Z,100642.09
2022-10-23T22:47:16.232Z,100649.84
2022-10-23T22:49:44.042Z,100649.44
2022-10-23T22:52:11.503Z,100637.41
2022-10-23T22:54:39.383Z,100639.72
2022-10-23T22:57:06.896Z,100645.53
2022-10-23T22:59:34.670Z,100647.41
2022-10-23T23:02:02.240Z,100644.69
2022-10-23T23:04:38.723Z,100641.53
2022-10-23T23:07:13.015Z,100635.34
2022-10-23T23:09:43.686Z,100636.88
2022-10-23T23:12:14.296Z,100640.31
2022-10-23T23:14:43.020Z,100636.06
2022-10-23T23:17:11.509Z,100643.78
2022-10-23T23:19:39.586Z,100644.53
2022-10-23T23:22:07.294Z,100642.94
2022-10-23T23:24:35.188Z,100649.13
2022-10-23T23:27:02.802Z,100642.94
2022-10-23T23:29:30.703Z,100642.19
2022-10-23T23:31:58.523Z,100641.75
2022-10-23T23:34:26.508Z,100646.00
2022-10-23T23:36:53.986Z,100636.69
2022-10-23T23:39:21.866Z,100646.00
2022-10-23T23:41:49.533Z,100637.47
2022-10-23T23:44:17.276Z,100635.88
2022-10-23T23:46:44.984Z,100623.47
2022-10-23T23:49:12.735Z,100630.44
2022-10-23T23:51:40.582Z,100628.09
2022-10-23T23:54:08.526Z,100624.63
2022-10-23T23:56:36.069Z,100627.31
2022-10-23T23:59:03.969Z,100624.16
